Time;durP1;ratioP1;P1;durP2;ratioP2;P2;SDS_P1;SDS_P2;PMS_P1;PMS_P2;Temp;Humidity;BMP_temperature;BMP_pressure;BME280_temperature;BME280_humidity;BME280_pressure;Samples;Min_cycle;Max_cycle;Signal;HPM_P1;HPM_P2
2023/04/04 00:00:32;;;;;;;2.23;2.10;;;1.60;99.90;;;;;;4991473;28;20517;-72
2023/04/04 00:02:57;;;;;;;4.13;3.00;;;1.50;99.90;;;;;;4990991;28;20215;-72
2023/04/04 00:05:23;;;;;;;4.10;2.37;;;1.50;99.90;;;;;;4982322;28;20210;-72
2023/04/04 00:07:48;;;;;;;2.80;2.50;;;1.50;99.90;;;;;;4985013;28;20248;-72
2023/04/04 00:10:14;;;;;;;2.70;2.37;;;1.50;99.90;;;;;;4985817;28;20642;-72
2023/04/04 00:12:41;;;;;;;3.10;2.10;;;1.50;99.90;;;;;;4995328;28;20196;-72
2023/04/04 00:15:06;;;;;;;2.93;2.30;;;1.50;99.90;;;;;;4989440;28;20480;-72
2023/04/04 00:17:32;;;;;;;3.83;2.60;;;1.50;99.90;;;;;;4990103;28;20434;-72
2023/04/04 00:19:58;;;;;;;3.13;2.40;;;1.50;99.90;;;;;;4989081;28;20571;-72
2023/04/04 00:22:24;;;;;;;3.10;2.17;;;1.50;99.90;;;;;;4991936;28;20206;-72
2023/04/04 00:24:50;;;;;;;4.03;2.93;;;1.50;99.90;;;;;;4972880;28;20458;-72
2023/04/04 00:27:15;;;;;;;4.10;3.30;;;1.40;99.90;;;;;;4977543;28;20514;-72
2023/04/04 00:29:41;;;;;;;4.10;2.87;;;1.40;99.90;;;;;;4992199;28;20175;-72
2023/04/04 00:32:06;;;;;;;5.33;2.67;;;1.30;99.90;;;;;;4985749;28;20184;-72
2023/04/04 00:34:32;;;;;;;2.83;2.60;;;1.30;99.90;;;;;;5000514;28;20199;-72
2023/04/04 00:36:58;;;;;;;4.30;2.97;;;1.30;99.90;;;;;;4989734;28;20199;-72
2023/04/04 00:39:25;;;;;;;3.60;3.10;;;1.20;99.90;;;;;;4990405;28;20179;-72
2023/04/04 00:41:51;;;;;;;2.93;2.70;;;1.20;99.90;;;;;;4993437;28;20183;-72
2023/04/04 00:44:17;;;;;;;3.97;3.03;;;1.20;99.90;;;;;;4998908;28;20493;-72
2023/04/04 00:46:43;;;;;;;2.63;2.43;;;1.20;99.90;;;;;;4991826;28;20438;-72
2023/04/04 00:49:08;;;;;;;3.83;3.10;;;1.20;99.90;;;;;;4994637;28;20438;-72
2023/04/04 00:51:34;;;;;;;4.90;2.90;;;1.20;99.90;;;;;;4984944;28;20175;-72
2023/04/04 00:54:00;;;;;;;3.80;2.70;;;1.20;99.90;;;;;;4982820;28;20540;-72
2023/04/04 00:56:27;;;;;;;4.43;2.60;;;1.20;99.90;;;;;;4984535;28;20196;-72
2023/04/04 00:58:54;;;;;;;3.40;3.10;;;1.10;99.90;;;;;;5004541;28;20434;-72
2023/04/04 01:01:20;;;;;;;3.63;2.90;;;1.10;99.90;;;;;;4986244;28;20566;-72
2023/04/04 01:03:45;;;;;;;4.00;2.83;;;1.00;99.90;;;;;;5004936;28;20560;-72
2023/04/04 01:06:12;;;;;;;5.70;3.00;;;1.00;99.90;;;;;;4987748;28;20291;-72
2023/04/04 01:08:39;;;;;;;3.00;2.60;;;1.00;99.90;;;;;;4985617;28;20189;-72
2023/04/04 01:11:05;;;;;;;2.90;2.60;;;1.00;99.90;;;;;;4987439;28;20445;-72
2023/04/04 01:13:32;;;;;;;3.27;2.40;;;1.00;99.90;;;;;;4985791;28;20442;-72
2023/04/04 01:15:58;;;;;;;4.00;2.90;;;0.90;99.90;;;;;;4986349;28;20462;-72
2023/04/04 01:18:25;;;;;;;4.23;3.30;;;1.00;99.90;;;;;;4989026;28;20447;-72
2023/04/04 01:20:57;;;;;;;5.03;2.67;;;1.00;99.90;;;;;;5001106;28;20439;-72
2023/04/04 01:23:34;;;;;;;3.90;2.63;;;1.00;99.90;;;;;;4986919;28;20468;-72
2023/04/04 01:26:03;;;;;;;3.43;2.80;;;1.00;99.90;;;;;;4994028;28;20922;-72
2023/04/04 01:28:28;;;;;;;7.00;3.00;;;1.00;99.90;;;;;;4990330;28;20434;-72
2023/04/04 01:30:55;;;;;;;3.07;2.87;;;1.00;99.90;;;;;;4983236;28;20506;-72
2023/04/04 01:33:34;;;;;;;3.60;3.20;;;0.90;99.90;;;;;;4988353;28;20215;-72
2023/04/04 01:36:26;;;;;;;4.30;3.10;;;0.90;99.90;;;;;;4994424;28;20472;-72
2023/04/04 01:38:58;;;;;;;9.10;3.20;;;0.70;99.90;;;;;;4983516;28;20443;-72
2023/04/04 01:41:24;;;;;;;5.27;3.03;;;0.80;99.90;;;;;;4986848;28;20431;-72
2023/04/04 01:43:51;;;;;;;3.57;3.00;;;0.80;99.90;;;;;;5000641;28;20523;-72
2023/04/04 01:46:17;;;;;;;2.97;2.73;;;0.80;99.90;;;;;;5003557;28;20457;-72
2023/04/04 01:48:45;;;;;;;3.80;2.87;;;0.80;99.90;;;;;;4986589;28;20443;-72
2023/04/04 01:51:10;;;;;;;2.67;2.43;;;0.70;99.90;;;;;;4994582;28;20932;-72
2023/04/04 01:53:36;;;;;;;3.40;3.10;;;0.70;99.90;;;;;;4988158;28;20504;-72
2023/04/04 01:56:02;;;;;;;3.57;2.80;;;0.70;99.90;;;;;;4994137;28;20211;-72
2023/04/04 01:58:27;;;;;;;4.97;3.00;;;0.70;99.90;;;;;;4987015;28;20187;-72
2023/04/04 02:00:53;;;;;;;7.00;3.00;;;0.60;99.90;;;;;;4984374;28;20652;-72
2023/04/04 02:03:18;;;;;;;3.33;2.60;;;0.60;99.90;;;;;;4993468;28;20205;-72
2023/04/04 02:05:45;;;;;;;3.13;2.83;;;0.60;99.90;;;;;;4996529;28;20195;-72
2023/04/04 02:08:11;;;;;;;3.53;3.23;;;0.50;99.90;;;;;;4991082;28;20180;-72
2023/04/04 02:10:36;;;;;;;6.80;3.67;;;0.50;99.90;;;;;;4988984;28;20434;-72
2023/04/04 02:13:02;;;;;;;4.47;2.90;;;0.50;99.90;;;;;;4986865;28;20588;-72
2023/04/04 02:15:27;;;;;;;4.40;4.03;;;0.40;99.90;;;;;;4994014;28;20302;-72
2023/04/04 02:17:53;;;;;;;5.57;3.37;;;0.50;99.90;;;;;;4994951;28;20278;-72
2023/04/04 02:20:19;;;;;;;4.20;3.80;;;0.40;99.90;;;;;;5001469;28;20191;-72
2023/04/04 02:22:52;;;;;;;3.80;3.40;;;0.40;99.90;;;;;;4991644;28;20208;-72
2023/04/04 02:25:17;;;;;;;3.57;3.27;;;0.30;99.90;;;;;;5001462;28;20196;-72
2023/04/04 02:27:43;;;;;;;6.33;4.13;;;0.30;99.90;;;;;;4994153;28;21005;-72
2023/04/04 02:30:09;;;;;;;4.30;3.20;;;0.30;99.90;;;;;;4988376;28;20728;-71
2023/04/04 02:32:35;;;;;;;3.80;3.10;;;0.30;99.90;;;;;;4985592;28;20623;-72
2023/04/04 02:35:01;;;;;;;3.43;3.13;;;0.20;99.90;;;;;;4987357;28;20502;-72
2023/04/04 02:37:26;;;;;;;3.40;2.77;;;0.30;99.90;;;;;;4992290;28;20675;-72
2023/04/04 02:39:52;;;;;;;3.40;3.10;;;0.30;99.90;;;;;;4996092;28;20213;-72
2023/04/04 02:42:17;;;;;;;3.67;3.37;;;0.30;99.90;;;;;;4999146;28;20178;-72
2023/04/04 02:44:43;;;;;;;3.83;3.53;;;0.30;99.90;;;;;;4992174;28;20550;-71
2023/04/04 02:47:08;;;;;;;7.17;3.77;;;0.20;99.90;;;;;;4988760;28;20194;-71
2023/04/04 02:49:34;;;;;;;5.50;3.43;;;0.30;99.90;;;;;;4992795;28;20211;-71
2023/04/04 02:52:00;;;;;;;3.13;2.80;;;0.20;99.90;;;;;;4992830;28;20271;-71
2023/04/04 02:54:25;;;;;;;7.83;3.90;;;0.20;99.90;;;;;;4990080;28;20898;-71
2023/04/04 02:56:51;;;;;;;3.87;3.53;;;0.20;99.90;;;;;;4978451;28;20180;-71
2023/04/04 02:59:17;;;;;;;3.53;3.20;;;0.20;99.90;;;;;;4988690;28;20180;-71
2023/04/04 03:01:42;;;;;;;3.90;3.47;;;0.20;99.90;;;;;;5002242;28;20193;-71
2023/04/04 03:04:08;;;;;;;3.93;3.53;;;0.20;99.90;;;;;;5002120;28;20210;-71
2023/04/04 03:06:33;;;;;;;4.10;3.60;;;0.10;99.90;;;;;;4991250;28;20175;-71
2023/04/04 03:08:59;;;;;;;3.83;3.43;;;0.10;99.90;;;;;;4998142;28;20561;-71
2023/04/04 03:11:25;;;;;;;3.27;2.97;;;0.10;99.90;;;;;;4994740;28;20663;-71
2023/04/04 03:13:51;;;;;;;6.77;3.50;;;0.10;99.90;;;;;;4990758;28;20440;-71
2023/04/04 03:16:18;;;;;;;4.17;3.70;;;0.10;99.90;;;;;;4987068;28;20317;-71
2023/04/04 03:18:44;;;;;;;7.50;3.90;;;0.00;99.90;;;;;;4988565;28;20184;-71
2023/04/04 03:21:09;;;;;;;4.63;3.80;;;0.00;99.90;;;;;;4991118;28;20439;-71
2023/04/04 03:23:35;;;;;;;4.47;3.93;;;0.00;99.90;;;;;;4982271;28;20215;-71
2023/04/04 03:26:01;;;;;;;4.30;3.30;;;0.00;99.90;;;;;;4993882;28;20246;-71
2023/04/04 03:28:26;;;;;;;6.90;3.60;;;0.00;99.90;;;;;;4992111;28;20251;-71
2023/04/04 03:30:52;;;;;;;6.20;4.07;;;0.00;99.90;;;;;;4992496;28;20618;-71
2023/04/04 03:33:18;;;;;;;4.03;3.70;;;0.00;99.90;;;;;;4982310;28;20207;-72
2023/04/04 03:35:43;;;;;;;3.80;3.47;;;0.00;99.90;;;;;;4989672;28;20215;-71
2023/04/04 03:38:09;;;;;;;4.00;3.10;;;0.00;99.90;;;;;;4977963;28;20972;-71
2023/04/04 03:40:35;;;;;;;8.23;3.70;;;0.00;99.90;;;;;;4993842;28;20187;-71
2023/04/04 03:43:01;;;;;;;4.60;3.53;;;-0.10;99.90;;;;;;4995815;28;20215;-71
2023/04/04 03:45:29;;;;;;;3.83;3.53;;;-0.10;99.90;;;;;;4991839;28;20457;-71
2023/04/04 03:47:54;;;;;;;3.80;3.50;;;-0.10;99.90;;;;;;4991960;28;20176;-71
2023/04/04 03:50:20;;;;;;;4.00;3.70;;;-0.10;99.90;;;;;;4991831;28;20445;-71
2023/04/04 03:52:46;;;;;;;3.40;3.20;;;-0.20;99.90;;;;;;4992380;28;20513;-71
2023/04/04 03:55:12;;;;;;;3.57;3.27;;;-0.20;99.90;;;;;;4990533;28;20196;-71
2023/04/04 03:57:37;;;;;;;2.97;2.60;;;-0.20;99.90;;;;;;4991384;28;20523;-71
2023/04/04 04:00:03;;;;;;;4.90;3.53;;;-0.30;99.90;;;;;;4990419;28;20180;-71
2023/04/04 04:02:29;;;;;;;4.07;3.77;;;-0.30;99.90;;;;;;4984883;28;20286;-71
2023/04/04 04:04:54;;;;;;;3.30;3.10;;;-0.30;99.90;;;;;;4973559;28;21016;-71
2023/04/04 04:07:20;;;;;;;4.60;4.20;;;-0.40;99.90;;;;;;4988059;28;20303;-71
2023/04/04 04:09:46;;;;;;;3.27;3.00;;;-0.40;99.90;;;;;;4987948;28;20183;-73
2023/04/04 04:12:11;;;;;;;5.73;4.30;;;-0.40;99.90;;;;;;4992125;28;20178;-72
2023/04/04 04:14:36;;;;;;;4.20;3.30;;;-0.40;99.90;;;;;;4984028;28;20721;-72
2023/04/04 04:17:02;;;;;;;3.57;3.27;;;-0.40;99.90;;;;;;4990824;28;20270;-72
2023/04/04 04:19:28;;;;;;;4.17;3.77;;;-0.40;99.90;;;;;;4993973;28;20184;-72
2023/04/04 04:21:54;;;;;;;3.10;2.90;;;-0.50;99.90;;;;;;4995642;28;20451;-72
2023/04/04 04:24:19;;;;;;;4.53;4.00;;;-0.50;99.90;;;;;;4999458;28;20205;-73
2023/04/04 04:26:45;;;;;;;3.67;3.00;;;-0.50;99.90;;;;;;5001653;28;20178;-73
2023/04/04 04:29:11;;;;;;;5.23;4.10;;;-0.50;99.90;;;;;;4990834;28;20188;-72
2023/04/04 04:31:37;;;;;;;4.40;4.10;;;-0.50;99.90;;;;;;4995706;28;20572;-72
2023/04/04 04:34:05;;;;;;;4.30;3.90;;;-0.60;99.90;;;;;;4991632;28;20271;-72
2023/04/04 04:36:31;;;;;;;8.23;4.53;;;-0.60;99.90;;;;;;4997210;28;20567;-72
2023/04/04 04:38:56;;;;;;;6.70;4.70;;;-0.60;99.90;;;;;;4981007;28;20467;-73
2023/04/04 04:41:22;;;;;;;3.97;3.63;;;-0.60;99.90;;;;;;4990741;28;20443;-72
2023/04/04 04:43:47;;;;;;;4.20;3.80;;;-0.60;99.90;;;;;;4995505;28;20576;-73
2023/04/04 04:46:13;;;;;;;4.27;3.90;;;-0.70;99.90;;;;;;4981115;28;20207;-72
2023/04/04 04:48:39;;;;;;;4.00;3.60;;;-0.70;99.90;;;;;;4988299;28;20210;-72
2023/04/04 04:51:04;;;;;;;4.70;3.63;;;-0.70;99.90;;;;;;4988491;28;20667;-73
2023/04/04 04:53:30;;;;;;;4.60;4.00;;;-0.70;99.90;;;;;;4990379;28;20668;-72
2023/04/04 04:55:56;;;;;;;5.60;4.27;;;-0.70;99.90;;;;;;4977349;28;20721;-72
2023/04/04 04:58:22;;;;;;;6.20;4.17;;;-0.70;99.90;;;;;;4987331;28;20190;-72
2023/04/04 05:00:48;;;;;;;4.50;3.77;;;-0.70;99.90;;;;;;4984226;28;20439;-72
2023/04/04 05:03:13;;;;;;;6.07;4.23;;;-0.60;99.90;;;;;;5000585;28;20961;-73
2023/04/04 05:05:41;;;;;;;4.43;4.00;;;-0.60;99.90;;;;;;4999684;28;20200;-72
2023/04/04 05:08:06;;;;;;;6.53;4.87;;;-0.60;99.90;;;;;;4996660;28;20197;-72
2023/04/04 05:10:32;;;;;;;4.90;4.40;;;-0.60;99.90;;;;;;4998853;28;20437;-72
2023/04/04 05:12:57;;;;;;;5.60;4.17;;;-0.60;99.90;;;;;;4990344;28;20668;-72
2023/04/04 05:15:28;;;;;;;4.70;4.40;;;-0.60;99.90;;;;;;4987230;28;20207;-73
2023/04/04 05:17:53;;;;;;;4.60;3.90;;;-0.60;99.90;;;;;;4995161;28;20194;-72
2023/04/04 05:20:19;;;;;;;4.30;3.53;;;-0.60;99.90;;;;;;4983700;28;20439;-72
2023/04/04 05:22:45;;;;;;;4.77;4.27;;;-0.50;99.90;;;;;;4984820;28;20218;-72
2023/04/04 05:25:12;;;;;;;4.13;3.70;;;-0.40;99.90;;;;;;4983769;28;20971;-72
2023/04/04 05:27:39;;;;;;;7.67;4.03;;;-0.30;99.90;;;;;;4989681;28;20576;-72
2023/04/04 05:30:06;;;;;;;4.93;4.50;;;-0.10;99.90;;;;;;4983230;28;20439;-73
2023/04/04 05:32:32;;;;;;;10.50;4.80;;;0.00;99.90;;;;;;4983444;28;20442;-72
2023/04/04 05:34:58;;;;;;;6.53;4.47;;;0.10;99.90;;;;;;4986522;28;21105;-72
2023/04/04 05:37:23;;;;;;;6.47;4.33;;;0.30;99.90;;;;;;4979284;28;20550;-72
2023/04/04 05:39:49;;;;;;;7.93;5.17;;;0.50;99.90;;;;;;4980264;28;20185;-73
2023/04/04 05:42:15;;;;;;;6.40;5.23;;;0.70;99.90;;;;;;4990080;28;20176;-73
2023/04/04 05:44:41;;;;;;;9.43;5.00;;;0.80;99.90;;;;;;4986438;28;20215;-73
2023/04/04 05:47:06;;;;;;;5.87;5.30;;;1.00;99.90;;;;;;4981204;28;20440;-73
2023/04/04 05:49:32;;;;;;;13.43;4.50;;;1.10;99.90;;;;;;5009477;28;20303;-73
2023/04/04 05:51:57;;;;;;;6.00;4.70;;;1.30;99.90;;;;;;4995267;28;20187;-73
2023/04/04 05:54:23;;;;;;;5.17;4.67;;;1.50;99.90;;;;;;4995245;28;20203;-73
2023/04/04 05:56:48;;;;;;;5.07;4.67;;;1.60;99.90;;;;;;4995299;28;20712;-73
2023/04/04 05:59:15;;;;;;;5.47;4.47;;;1.80;99.90;;;;;;4995375;28;20550;-73
2023/04/04 06:01:40;;;;;;;7.20;4.70;;;2.00;99.90;;;;;;5006605;28;20175;-73
2023/04/04 06:04:06;;;;;;;6.77;4.60;;;2.10;99.90;;;;;;5014759;28;20787;-73
2023/04/04 06:06:33;;;;;;;7.83;4.17;;;2.20;99.90;;;;;;5014812;28;20199;-73
2023/04/04 06:08:58;;;;;;;7.70;4.70;;;2.30;99.90;;;;;;5014021;28;20571;-73
2023/04/04 06:11:24;;;;;;;6.37;4.50;;;2.40;99.90;;;;;;5014483;28;20414;-73
2023/04/04 06:13:50;;;;;;;6.10;4.10;;;2.50;99.90;;;;;;5000699;28;20229;-73
2023/04/04 06:16:15;;;;;;;4.10;3.70;;;2.60;99.90;;;;;;5006412;28;20198;-73
2023/04/04 06:18:41;;;;;;;6.00;4.17;;;2.70;99.90;;;;;;5013929;28;20422;-73
2023/04/04 06:21:06;;;;;;;4.50;3.87;;;2.80;99.90;;;;;;5013209;28;20171;-73
2023/04/04 06:23:32;;;;;;;4.70;3.70;;;3.00;99.90;;;;;;5014335;28;20241;-73
2023/04/04 06:25:58;;;;;;;7.13;3.70;;;3.00;99.90;;;;;;5014173;28;20549;-74
2023/04/04 06:28:23;;;;;;;6.20;3.90;;;3.00;99.90;;;;;;4999095;28;20830;-74
2023/04/04 06:30:49;;;;;;;4.50;4.10;;;3.10;99.90;;;;;;5009529;28;20171;-74
2023/04/04 06:33:15;;;;;;;6.30;4.20;;;3.30;99.90;;;;;;5014214;28;20171;-74
2023/04/04 06:35:40;;;;;;;4.17;3.77;;;3.30;99.90;;;;;;5003801;28;20474;-74
2023/04/04 06:38:06;;;;;;;4.80;4.40;;;3.50;99.90;;;;;;4974795;28;20235;-71
2023/04/04 06:40:32;;;;;;;4.23;3.83;;;3.60;99.90;;;;;;4991893;28;20176;-72
2023/04/04 06:42:57;;;;;;;4.37;3.40;;;3.70;99.90;;;;;;4990268;28;20200;-72
2023/04/04 06:45:23;;;;;;;5.10;4.70;;;3.80;99.90;;;;;;5005661;28;20222;-72
2023/04/04 06:47:50;;;;;;;5.03;4.53;;;4.00;99.90;;;;;;5013876;28;20262;-73
2023/04/04 06:50:16;;;;;;;4.73;3.87;;;4.20;99.90;;;;;;5013235;28;20425;-73
2023/04/04 06:52:43;;;;;;;6.77;4.43;;;4.20;99.90;;;;;;4994428;28;20781;-73
2023/04/04 06:55:09;;;;;;;7.73;4.60;;;4.20;99.90;;;;;;4993164;28;20462;-73
2023/04/04 06:57:35;;;;;;;4.57;4.17;;;4.40;99.90;;;;;;5005244;28;21115;-73
2023/04/04 07:00:01;;;;;;;5.67;5.13;;;4.50;99.90;;;;;;5012704;28;20544;-73
2023/04/04 07:02:26;;;;;;;5.20;4.10;;;4.70;99.90;;;;;;4994922;28;20175;-72
2023/04/04 07:04:52;;;;;;;8.70;3.90;;;4.80;99.90;;;;;;5010991;28;20823;-72
2023/04/04 07:07:17;;;;;;;5.53;4.43;;;4.80;99.90;;;;;;5009965;28;20175;-72
2023/04/04 07:09:43;;;;;;;6.57;3.90;;;4.90;99.90;;;;;;4993030;28;20875;-73
2023/04/04 07:12:09;;;;;;;4.47;4.07;;;4.90;99.90;;;;;;4989680;28;20173;-73
2023/04/04 07:14:34;;;;;;;4.60;3.80;;;5.20;99.90;;;;;;4973750;28;20299;-73
2023/04/04 07:17:00;;;;;;;4.70;3.50;;;5.30;99.90;;;;;;4998640;28;20551;-73
2023/04/04 07:19:27;;;;;;;5.07;4.27;;;5.40;99.90;;;;;;5012548;28;20235;-73
2023/04/04 07:21:54;;;;;;;3.43;3.13;;;5.70;99.50;;;;;;4998774;28;20182;-72
2023/04/04 07:24:20;;;;;;;3.53;3.23;;;5.60;96.20;;;;;;4992871;28;20455;-72
2023/04/04 07:26:46;;;;;;;3.57;2.90;;;5.50;95.90;;;;;;4993248;28;20422;-72
2023/04/04 07:29:12;;;;;;;5.00;3.47;;;5.70;95.60;;;;;;4982738;28;20428;-72
2023/04/04 07:31:37;;;;;;;4.77;3.40;;;5.70;94.00;;;;;;4986910;28;20175;-72
2023/04/04 07:34:03;;;;;;;5.70;3.33;;;5.60;93.60;;;;;;4994600;28;20430;-72
2023/04/04 07:36:28;;;;;;;2.67;2.20;;;5.70;93.70;;;;;;4992936;28;20219;-73
2023/04/04 07:38:54;;;;;;;5.20;3.10;;;5.60;92.80;;;;;;4991078;28;20175;-73
2023/04/04 07:41:21;;;;;;;3.77;3.00;;;5.70;92.30;;;;;;4993164;28;20175;-73
2023/04/04 07:43:47;;;;;;;3.37;3.07;;;5.70;92.10;;;;;;4992913;28;20205;-73
2023/04/04 07:46:13;;;;;;;3.70;3.27;;;5.60;91.70;;;;;;4992988;28;20793;-72
2023/04/04 07:48:39;;;;;;;3.60;2.93;;;5.80;92.50;;;;;;4994334;28;20517;-73
2023/04/04 07:51:05;;;;;;;3.57;3.27;;;6.00;91.50;;;;;;5008563;28;20809;-73
2023/04/04 07:53:30;;;;;;;4.73;4.30;;;6.20;91.20;;;;;;5012399;28;20214;-73
2023/04/04 07:55:56;;;;;;;6.60;3.80;;;5.90;90.60;;;;;;5012620;28;20629;-73
2023/04/04 07:58:21;;;;;;;2.93;2.73;;;5.60;91.20;;;;;;5011610;28;20170;-74
2023/04/04 08:00:47;;;;;;;4.07;3.00;;;5.40;91.40;;;;;;5008442;28;20190;-74
2023/04/04 08:03:13;;;;;;;3.30;3.00;;;5.50;91.40;;;;;;5002741;28;20563;-73
2023/04/04 08:05:40;;;;;;;3.80;3.10;;;5.60;91.70;;;;;;5012257;28;20855;-74
2023/04/04 08:08:06;;;;;;;3.03;2.80;;;5.80;91.90;;;;;;5012199;28;20429;-74
2023/04/04 08:10:32;;;;;;;5.80;5.10;;;5.80;90.60;;;;;;5011670;28;20882;-72
2023/04/04 08:12:57;;;;;;;3.40;3.00;;;5.60;91.70;;;;;;5012022;28;20174;-73
2023/04/04 08:15:23;;;;;;;3.13;2.83;;;5.90;91.60;;;;;;5012184;28;20732;-74
2023/04/04 08:17:49;;;;;;;3.60;3.30;;;6.30;90.50;;;;;;5007357;28;20189;-73
2023/04/04 08:20:14;;;;;;;7.30;3.87;;;6.50;90.00;;;;;;5003077;28;20269;-74
2023/04/04 08:22:41;;;;;;;4.23;3.83;;;6.40;88.50;;;;;;5010441;28;20195;-73
2023/04/04 08:25:08;;;;;;;4.77;4.37;;;6.30;89.70;;;;;;5011625;28;20198;-75
2023/04/04 08:27:33;;;;;;;3.27;3.07;;;6.30;90.20;;;;;;5011756;28;20418;-74
2023/04/04 08:29:59;;;;;;;7.77;2.80;;;6.50;90.00;;;;;;5010304;28;20429;-74
2023/04/04 08:32:25;;;;;;;4.40;3.07;;;6.50;89.40;;;;;;4991875;28;20175;-74
2023/04/04 08:34:50;;;;;;;4.20;3.23;;;6.10;87.20;;;;;;4996232;28;20214;-74
2023/04/04 08:37:17;;;;;;;4.23;3.07;;;6.20;90.00;;;;;;5003658;28;20199;-74
2023/04/04 08:39:42;;;;;;;3.97;3.57;;;6.80;90.30;;;;;;5011246;28;20170;-75
2023/04/04 08:42:09;;;;;;;3.20;2.70;;;7.10;88.40;;;;;;5003306;28;20442;-74
2023/04/04 08:44:36;;;;;;;3.43;3.13;;;7.20;83.70;;;;;;4976022;28;20618;-74
2023/04/04 08:47:07;;;;;;;4.20;3.50;;;7.50;84.00;;;;;;4992244;28;20420;-75
2023/04/04 08:49:37;;;;;;;7.20;4.00;;;7.60;83.60;;;;;;4991441;28;20415;-74
2023/04/04 08:52:05;;;;;;;4.80;3.50;;;7.70;81.00;;;;;;4984199;28;20443;-73
2023/04/04 08:54:33;;;;;;;7.37;3.97;;;7.50;80.30;;;;;;5000062;28;20947;-74
2023/04/04 08:56:58;;;;;;;8.93;4.07;;;7.10;80.50;;;;;;4990650;28;20427;-73
2023/04/04 08:59:24;;;;;;;5.90;4.27;;;7.00;82.00;;;;;;4991763;28;20430;-73
2023/04/04 09:02:03;;;;;;;8.90;3.80;;;7.20;82.00;;;;;;4992008;28;20221;-74
2023/04/04 09:04:30;;;;;;;12.93;3.20;;;7.90;80.10;;;;;;4992812;28;20357;-74
2023/04/04 09:06:56;;;;;;;3.80;2.80;;;8.60;79.00;;;;;;5007947;28;20421;-75
2023/04/04 09:09:22;;;;;;;5.53;3.23;;;9.50;73.80;;;;;;5009466;28;20466;-75
2023/04/04 09:11:50;;;;;;;5.10;4.50;;;10.10;68.60;;;;;;5010216;28;20500;-75
2023/04/04 09:14:16;;;;;;;4.13;3.00;;;9.10;67.90;;;;;;5011680;28;20433;-74
2023/04/04 09:16:42;;;;;;;6.83;4.27;;;8.80;68.10;;;;;;5008938;28;20429;-74
2023/04/04 09:19:07;;;;;;;4.20;3.90;;;8.90;69.60;;;;;;5003293;28;20429;-75
2023/04/04 09:21:33;;;;;;;4.90;3.57;;;8.70;69.00;;;;;;4991993;28;20175;-75
2023/04/04 09:24:00;;;;;;;6.60;3.60;;;8.40;69.10;;;;;;4991658;28;20210;-75
2023/04/04 09:26:26;;;;;;;3.43;2.77;;;8.20;69.60;;;;;;4991979;28;20586;-75
2023/04/04 09:28:52;;;;;;;4.40;3.70;;;8.50;70.50;;;;;;4991404;28;20411;-75
2023/04/04 09:31:18;;;;;;;4.53;3.60;;;9.70;69.00;;;;;;4991788;28;20561;-76
2023/04/04 09:33:43;;;;;;;6.30;3.83;;;10.80;64.20;;;;;;4989820;28;20442;-74
2023/04/04 09:36:11;;;;;;;5.43;4.17;;;11.90;61.50;;;;;;4998532;28;20305;-74
2023/04/04 09:38:44;;;;;;;3.57;3.27;;;13.00;57.60;;;;;;5000917;28;20190;-74
2023/04/04 09:41:12;;;;;;;6.20;3.40;;;12.80;55.80;;;;;;4995264;28;20418;-74
2023/04/04 09:43:38;;;;;;;4.30;3.40;;;12.90;54.10;;;;;;4995287;28;20577;-74
2023/04/04 09:46:05;;;;;;;3.80;3.50;;;13.60;52.90;;;;;;4994884;28;20465;-75
2023/04/04 09:48:33;;;;;;;3.73;3.43;;;13.10;53.60;;;;;;4994615;28;20429;-75
2023/04/04 09:50:59;;;;;;;4.97;4.00;;;14.20;52.00;;;;;;5001176;28;20437;-74
2023/04/04 09:53:25;;;;;;;4.80;3.60;;;14.90;49.20;;;;;;5006484;28;20426;-75
2023/04/04 09:55:52;;;;;;;4.53;3.53;;;15.80;48.50;;;;;;5014824;28;20438;-74
2023/04/04 09:58:25;;;;;;;3.93;3.37;;;17.30;45.30;;;;;;5013755;28;20437;-74
2023/04/04 10:00:54;;;;;;;4.83;3.40;;;16.50;43.70;;;;;;5006477;28;20451;-74
2023/04/04 10:03:25;;;;;;;5.80;3.83;;;14.80;44.80;;;;;;5004950;28;20493;-76
2023/04/04 10:06:03;;;;;;;4.50;3.90;;;14.70;45.30;;;;;;5014260;28;21006;-76
2023/04/04 10:08:30;;;;;;;4.83;3.50;;;14.40;45.60;;;;;;5013936;28;21438;-74
2023/04/04 10:11:01;;;;;;;4.53;4.13;;;14.20;44.90;;;;;;5014368;28;20495;-74
2023/04/04 10:13:28;;;;;;;4.17;3.73;;;14.30;45.00;;;;;;5014289;28;20421;-76
2023/04/04 10:15:56;;;;;;;4.03;3.63;;;14.50;45.00;;;;;;4997558;28;20470;-72
2023/04/04 10:18:24;;;;;;;3.93;3.63;;;14.00;45.20;;;;;;4989688;28;20453;-75
2023/04/04 10:20:50;;;;;;;4.63;4.20;;;14.70;45.00;;;;;;5001703;28;20441;-76
2023/04/04 10:23:18;;;;;;;4.73;4.23;;;16.20;43.80;;;;;;4990102;28;20503;-68
2023/04/04 10:25:44;;;;;;;4.53;4.13;;;17.80;41.60;;;;;;4987547;28;20812;-66
2023/04/04 10:28:10;;;;;;;4.30;3.80;;;18.90;41.10;;;;;;4987248;28;20431;-69
2023/04/04 10:30:41;;;;;;;3.90;3.60;;;19.00;41.00;;;;;;4989052;28;20430;-69
2023/04/04 10:33:11;;;;;;;3.87;3.50;;;19.60;39.80;;;;;;4989493;28;20513;-69
2023/04/04 10:35:39;;;;;;;4.23;3.93;;;20.70;37.70;;;;;;4990686;28;20463;-69
2023/04/04 10:38:07;;;;;;;4.57;4.13;;;21.80;35.40;;;;;;4991014;28;20422;-70
2023/04/04 10:40:39;;;;;;;4.83;4.00;;;21.70;33.60;;;;;;4991982;28;20423;-67
2023/04/04 10:43:08;;;;;;;4.80;3.47;;;21.30;32.70;;;;;;4992978;28;20476;-69
2023/04/04 10:45:37;;;;;;;6.00;4.90;;;20.80;33.90;;;;;;4988844;28;20509;-72
2023/04/04 10:48:03;;;;;;;4.17;3.60;;;20.40;33.30;;;;;;4994285;28;20522;-70
2023/04/04 10:50:32;;;;;;;4.53;4.20;;;20.60;32.20;;;;;;4992536;28;20505;-69
2023/04/04 10:53:00;;;;;;;3.50;3.30;;;21.30;31.80;;;;;;4993262;28;20427;-68
2023/04/04 10:55:27;;;;;;;3.70;3.40;;;21.60;31.20;;;;;;4990760;28;20970;-70
2023/04/04 10:57:54;;;;;;;4.10;3.80;;;21.20;30.60;;;;;;4989592;28;20506;-71
2023/04/04 11:00:22;;;;;;;5.90;3.63;;;20.60;30.80;;;;;;4992409;28;20430;-70
2023/04/04 11:02:56;;;;;;;4.17;3.77;;;20.10;31.70;;;;;;4989786;28;20470;-72
2023/04/04 11:05:23;;;;;;;4.07;3.67;;;19.10;31.30;;;;;;4988071;28;20462;-73
2023/04/04 11:08:00;;;;;;;4.53;4.13;;;19.70;31.20;;;;;;4991781;28;20427;-73
2023/04/04 11:10:34;;;;;;;3.37;3.17;;;20.30;31.80;;;;;;4983284;28;20506;-72
2023/04/04 11:13:10;;;;;;;4.23;3.87;;;20.90;30.40;;;;;;4982437;28;20426;-72
2023/04/04 11:15:55;;;;;;;4.93;3.57;;;20.00;30.90;;;;;;4982711;28;20458;-72
2023/04/04 11:18:22;;;;;;;4.03;3.60;;;19.40;31.10;;;;;;4981743;28;20427;-75
2023/04/04 11:20:48;;;;;;;4.10;3.73;;;19.20;32.10;;;;;;4980072;28;20507;-73
2023/04/04 11:23:20;;;;;;;4.23;3.83;;;21.20;31.10;;;;;;4983241;28;20530;-75
2023/04/04 11:25:53;;;;;;;3.97;3.53;;;22.00;29.60;;;;;;4984346;28;20470;-73
2023/04/04 11:28:44;;;;;;;4.47;4.07;;;21.90;29.20;;;;;;4982963;28;20424;-72
2023/04/04 11:31:19;;;;;;;3.43;3.07;;;22.20;29.30;;;;;;4993014;28;20984;-73
2023/04/04 11:34:07;;;;;;;4.63;3.90;;;21.30;29.10;;;;;;4987323;28;20434;-71
2023/04/04 11:36:36;;;;;;;5.30;3.77;;;21.40;28.80;;;;;;4987196;28;20511;-76
2023/04/04 11:39:18;;;;;;;3.77;3.47;;;21.30;29.40;;;;;;4983862;28;20431;-73
2023/04/04 11:42:02;;;;;;;3.83;3.53;;;21.70;28.90;;;;;;4987309;28;20466;-75
2023/04/04 11:44:29;;;;;;;4.40;3.83;;;20.90;29.10;;;;;;4986947;28;20470;-75
2023/04/04 11:47:08;;;;;;;4.00;3.60;;;20.70;29.30;;;;;;4987754;28;20474;-75
2023/04/04 11:49:39;;;;;;;6.10;4.03;;;21.70;29.40;;;;;;4988103;28;20475;-75
2023/04/04 11:52:10;;;;;;;5.70;4.60;;;22.30;28.30;;;;;;4989072;28;20450;-74
2023/04/04 11:54:41;;;;;;;5.13;4.47;;;22.40;28.10;;;;;;4984774;28;20455;-74
2023/04/04 11:57:10;;;;;;;3.70;3.33;;;23.30;28.00;;;;;;4984836;28;20427;-75
2023/04/04 11:59:44;;;;;;;5.83;3.87;;;23.50;27.40;;;;;;4982508;28;20431;-75
2023/04/04 12:02:11;;;;;;;4.40;4.00;;;23.30;27.60;;;;;;4986227;28;20442;-75
2023/04/04 12:04:38;;;;;;;4.77;3.80;;;23.50;27.10;;;;;;4988078;28;20463;-75
2023/04/04 12:07:06;;;;;;;3.90;3.60;;;24.10;26.50;;;;;;4987908;28;20480;-76
2023/04/04 12:09:33;;;;;;;4.73;4.20;;;24.30;26.80;;;;;;4987987;28;20430;-75
2023/04/04 12:11:58;;;;;;;4.27;3.73;;;23.40;26.40;;;;;;4986851;28;20430;-75
2023/04/04 12:14:25;;;;;;;4.87;4.47;;;22.90;26.80;;;;;;4987410;28;20423;-75
2023/04/04 12:16:53;;;;;;;4.03;3.73;;;23.10;26.90;;;;;;4979682;28;20207;-75
2023/04/04 12:19:21;;;;;;;4.27;3.87;;;23.50;26.80;;;;;;4976866;28;20827;-74
2023/04/04 12:21:49;;;;;;;4.10;3.80;;;24.00;26.80;;;;;;5004017;28;20434;-75
2023/04/04 12:24:15;;;;;;;3.80;3.50;;;24.90;26.30;;;;;;5011953;28;20454;-74
2023/04/04 12:26:44;;;;;;;3.90;3.60;;;25.00;25.90;;;;;;5012018;28;20984;-75
2023/04/04 12:29:12;;;;;;;4.33;3.93;;;24.00;25.50;;;;;;5011462;28;20447;-75
2023/04/04 12:31:40;;;;;;;4.60;4.20;;;24.50;25.80;;;;;;5012012;28;20422;-75
2023/04/04 12:34:07;;;;;;;3.73;3.43;;;25.00;25.30;;;;;;5011845;28;20438;-76
2023/04/04 12:36:36;;;;;;;4.93;4.53;;;25.30;24.90;;;;;;5000747;28;20453;-76
2023/04/04 12:39:05;;;;;;;4.90;3.73;;;25.70;24.70;;;;;;4994589;28;20430;-75
2023/04/04 12:41:32;;;;;;;4.30;3.93;;;24.90;24.80;;;;;;4992334;28;20446;-75
2023/04/04 12:44:08;;;;;;;3.97;3.67;;;23.50;25.20;;;;;;4992237;28;21062;-75
2023/04/04 12:46:38;;;;;;;4.27;3.87;;;22.80;26.00;;;;;;4992263;28;20418;-75
2023/04/04 12:49:10;;;;;;;4.30;3.90;;;22.90;25.10;;;;;;4991690;28;20913;-75
2023/04/04 12:51:36;;;;;;;3.50;3.30;;;23.40;25.60;;;;;;4999328;28;20959;-75